sensor_id;sensor_type;location;lat;lon;timestamp;P1;durP1;ratioP1;P2;durP2;ratioP2
56427;SDS011;42331;53.578;9.760;2023-02-15T00:04:22;48.60;;;22.97;;
56427;SDS011;42331;53.578;9.760;2023-02-15T00:06:54;45.83;;;23.67;;
56427;SDS011;42331;53.578;9.760;2023-02-15T00:09:25;41.85;;;22.40;;
56427;SDS011;42331;53.578;9.760;2023-02-15T00:11:56;43.10;;;21.90;;
56427;SDS011;42331;53.578;9.760;2023-02-15T00:14:26;52.55;;;24.45;;
56427;SDS011;42331;53.578;9.760;2023-02-15T00:16:57;32.15;;;17.10;;
56427;SDS011;42331;53.578;9.760;2023-02-15T00:19:29;41.25;;;22.27;;
56427;SDS011;42331;53.578;9.760;2023-02-15T00:22:00;30.55;;;16.33;;
56427;SDS011;42331;53.578;9.760;2023-02-15T00:24:31;47.55;;;22.60;;
56427;SDS011;42331;53.578;9.760;2023-02-15T00:27:02;47.78;;;24.00;;
56427;SDS011;42331;53.578;9.760;2023-02-15T00:29:33;49.13;;;24.00;;
56427;SDS011;42331;53.578;9.760;2023-02-15T00:32:03;50.38;;;24.45;;
56427;SDS011;42331;53.578;9.760;2023-02-15T00:34:34;49.43;;;24.60;;
56427;SDS011;42331;53.578;9.760;2023-02-15T00:37:05;49.95;;;25.17;;
56427;SDS011;42331;53.578;9.760;2023-02-15T00:39:35;51.72;;;25.27;;
56427;SDS011;42331;53.578;9.760;2023-02-15T00:42:06;52.17;;;24.03;;
56427;SDS011;42331;53.578;9.760;2023-02-15T00:44:37;54.72;;;26.48;;
56427;SDS011;42331;53.578;9.760;2023-02-15T00:47:07;52.87;;;25.10;;
56427;SDS011;42331;53.578;9.760;2023-02-15T00:49:38;54.20;;;25.93;;
56427;SDS011;42331;53.578;9.760;2023-02-15T00:52:09;49.30;;;24.15;;
56427;SDS011;42331;53.578;9.760;2023-02-15T00:54:39;44.28;;;22.90;;
56427;SDS011;42331;53.578;9.760;2023-02-15T00:57:10;48.47;;;24.30;;
56427;SDS011;42331;53.578;9.760;2023-02-15T00:59:41;46.67;;;23.17;;
56427;SDS011;42331;53.578;9.760;2023-02-15T01:02:11;45.88;;;22.77;;
56427;SDS011;42331;53.578;9.760;2023-02-15T01:04:42;50.40;;;23.70;;
56427;SDS011;42331;53.578;9.760;2023-02-15T01:07:13;44.10;;;22.98;;
56427;SDS011;42331;53.578;9.760;2023-02-15T01:09:43;44.80;;;22.57;;
56427;SDS011;42331;53.578;9.760;2023-02-15T01:12:14;48.97;;;23.70;;
56427;SDS011;42331;53.578;9.760;2023-02-15T01:14:45;47.77;;;23.70;;
56427;SDS011;42331;53.578;9.760;2023-02-15T01:17:15;47.70;;;24.67;;
56427;SDS011;42331;53.578;9.760;2023-02-15T01:19:46;45.75;;;24.17;;
56427;SDS011;42331;53.578;9.760;2023-02-15T01:22:18;45.15;;;22.65;;
56427;SDS011;42331;53.578;9.760;2023-02-15T01:24:49;46.63;;;23.52;;
56427;SDS011;42331;53.578;9.760;2023-02-15T01:27:20;32.88;;;16.75;;
56427;SDS011;42331;53.578;9.760;2023-02-15T01:29:50;44.50;;;22.15;;
56427;SDS011;42331;53.578;9.760;2023-02-15T01:32:21;46.35;;;24.58;;
56427;SDS011;42331;53.578;9.760;2023-02-15T01:34:52;45.58;;;23.00;;
56427;SDS011;42331;53.578;9.760;2023-02-15T01:37:23;41.75;;;22.92;;
56427;SDS011;42331;53.578;9.760;2023-02-15T01:39:54;43.27;;;23.33;;
56427;SDS011;42331;53.578;9.760;2023-02-15T01:42:24;47.67;;;25.37;;
56427;SDS011;42331;53.578;9.760;2023-02-15T01:44:57;59.42;;;25.17;;
56427;SDS011;42331;53.578;9.760;2023-02-15T01:50:40;57.80;;;23.98;;
56427;SDS011;42331;53.578;9.760;2023-02-15T01:53:41;78.60;;;28.25;;
56427;SDS011;42331;53.578;9.760;2023-02-15T01:56:17;79.40;;;29.70;;
56427;SDS011;42331;53.578;9.760;2023-02-15T01:59:00;82.63;;;29.58;;
56427;SDS011;42331;53.578;9.760;2023-02-15T02:01:35;90.50;;;29.98;;
56427;SDS011;42331;53.578;9.760;2023-02-15T02:04:20;72.88;;;30.27;;
56427;SDS011;42331;53.578;9.760;2023-02-15T02:06:53;71.78;;;29.40;;
56427;SDS011;42331;53.578;9.760;2023-02-15T02:09:24;47.03;;;20.63;;
56427;SDS011;42331;53.578;9.760;2023-02-15T02:11:56;69.25;;;30.48;;
56427;SDS011;42331;53.578;9.760;2023-02-15T02:14:27;69.15;;;28.45;;
56427;SDS011;42331;53.578;9.760;2023-02-15T02:25:27;66.50;;;29.33;;
56427;SDS011;42331;53.578;9.760;2023-02-15T02:39:43;72.75;;;30.02;;
56427;SDS011;42331;53.578;9.760;2023-02-15T02:47:47;71.80;;;28.40;;
56427;SDS011;42331;53.578;9.760;2023-02-15T02:50:24;68.80;;;29.98;;
56427;SDS011;42331;53.578;9.760;2023-02-15T02:52:58;90.72;;;30.05;;
56427;SDS011;42331;53.578;9.760;2023-02-15T02:55:44;60.97;;;28.85;;
56427;SDS011;42331;53.578;9.760;2023-02-15T02:58:21;79.78;;;30.23;;
56427;SDS011;42331;53.578;9.760;2023-02-15T03:00:59;73.57;;;30.50;;
56427;SDS011;42331;53.578;9.760;2023-02-15T03:03:36;81.40;;;28.67;;
56427;SDS011;42331;53.578;9.760;2023-02-15T03:06:16;79.13;;;31.48;;
56427;SDS011;42331;53.578;9.760;2023-02-15T03:09:14;94.30;;;30.98;;
56427;SDS011;42331;53.578;9.760;2023-02-15T03:11:50;82.55;;;31.83;;
56427;SDS011;42331;53.578;9.760;2023-02-15T03:14:21;94.87;;;28.47;;
56427;SDS011;42331;53.578;9.760;2023-02-15T03:16:51;93.88;;;31.63;;
56427;SDS011;42331;53.578;9.760;2023-02-15T03:21:59;174.55;;;27.40;;
56427;SDS011;42331;53.578;9.760;2023-02-15T03:24:54;138.35;;;27.67;;
56427;SDS011;42331;53.578;9.760;2023-02-15T03:27:52;296.05;;;28.95;;
56427;SDS011;42331;53.578;9.760;2023-02-15T03:30:25;77.03;;;28.17;;
56427;SDS011;42331;53.578;9.760;2023-02-15T03:32:58;83.47;;;28.65;;
56427;SDS011;42331;53.578;9.760;2023-02-15T03:35:33;110.85;;;28.92;;
56427;SDS011;42331;53.578;9.760;2023-02-15T03:38:12;76.83;;;27.80;;
56427;SDS011;42331;53.578;9.760;2023-02-15T03:40:47;142.70;;;30.25;;
56427;SDS011;42331;53.578;9.760;2023-02-15T03:46:18;111.72;;;27.73;;
56427;SDS011;42331;53.578;9.760;2023-02-15T03:49:04;139.30;;;29.35;;
56427;SDS011;42331;53.578;9.760;2023-02-15T03:54:19;79.38;;;26.60;;
56427;SDS011;42331;53.578;9.760;2023-02-15T03:57:15;75.22;;;26.13;;
56427;SDS011;42331;53.578;9.760;2023-02-15T04:00:19;70.55;;;27.60;;
56427;SDS011;42331;53.578;9.760;2023-02-15T04:05:45;72.78;;;27.17;;
56427;SDS011;42331;53.578;9.760;2023-02-15T04:08:16;50.58;;;20.35;;
56427;SDS011;42331;53.578;9.760;2023-02-15T04:10:46;144.52;;;29.30;;
56427;SDS011;42331;53.578;9.760;2023-02-15T04:13:24;67.45;;;26.60;;
56427;SDS011;42331;53.578;9.760;2023-02-15T04:16:00;74.50;;;28.05;;
56427;SDS011;42331;53.578;9.760;2023-02-15T04:18:37;69.38;;;26.92;;
56427;SDS011;42331;53.578;9.760;2023-02-15T04:21:28;104.70;;;30.17;;
56427;SDS011;42331;53.578;9.760;2023-02-15T04:24:18;74.50;;;28.58;;
56427;SDS011;42331;53.578;9.760;2023-02-15T04:27:08;60.22;;;26.70;;
56427;SDS011;42331;53.578;9.760;2023-02-15T04:29:39;89.90;;;27.45;;
56427;SDS011;42331;53.578;9.760;2023-02-15T04:32:09;83.95;;;28.10;;
56427;SDS011;42331;53.578;9.760;2023-02-15T04:34:40;79.15;;;28.35;;
56427;SDS011;42331;53.578;9.760;2023-02-15T04:37:11;116.00;;;27.57;;
56427;SDS011;42331;53.578;9.760;2023-02-15T04:39:41;77.43;;;26.67;;
56427;SDS011;42331;53.578;9.760;2023-02-15T04:42:12;115.63;;;28.15;;
56427;SDS011;42331;53.578;9.760;2023-02-15T04:44:43;96.35;;;28.48;;
56427;SDS011;42331;53.578;9.760;2023-02-15T04:47:14;133.20;;;28.33;;
56427;SDS011;42331;53.578;9.760;2023-02-15T04:49:44;112.30;;;28.10;;
56427;SDS011;42331;53.578;9.760;2023-02-15T04:52:18;127.77;;;28.57;;
56427;SDS011;42331;53.578;9.760;2023-02-15T04:54:49;113.78;;;28.80;;
56427;SDS011;42331;53.578;9.760;2023-02-15T04:57:20;120.80;;;26.45;;
56427;SDS011;42331;53.578;9.760;2023-02-15T04:59:51;167.32;;;27.98;;
56427;SDS011;42331;53.578;9.760;2023-02-15T05:02:25;104.85;;;27.63;;
56427;SDS011;42331;53.578;9.760;2023-02-15T05:04:56;89.55;;;27.48;;
56427;SDS011;42331;53.578;9.760;2023-02-15T05:07:27;129.27;;;25.85;;
56427;SDS011;42331;53.578;9.760;2023-02-15T05:09:57;144.48;;;24.73;;
56427;SDS011;42331;53.578;9.760;2023-02-15T05:12:28;117.45;;;24.42;;
56427;SDS011;42331;53.578;9.760;2023-02-15T05:14:59;75.43;;;20.60;;
56427;SDS011;42331;53.578;9.760;2023-02-15T05:17:29;136.10;;;26.15;;
56427;SDS011;42331;53.578;9.760;2023-02-15T05:20:00;116.23;;;24.47;;
56427;SDS011;42331;53.578;9.760;2023-02-15T05:22:31;175.98;;;19.42;;
56427;SDS011;42331;53.578;9.760;2023-02-15T05:25:01;92.90;;;25.52;;
56427;SDS011;42331;53.578;9.760;2023-02-15T05:27:51;120.60;;;25.58;;
56427;SDS011;42331;53.578;9.760;2023-02-15T05:30:40;147.90;;;25.08;;
56427;SDS011;42331;53.578;9.760;2023-02-15T05:33:21;79.18;;;24.35;;
56427;SDS011;42331;53.578;9.760;2023-02-15T05:35:51;174.52;;;24.40;;
56427;SDS011;42331;53.578;9.760;2023-02-15T05:38:22;125.57;;;24.85;;
56427;SDS011;42331;53.578;9.760;2023-02-15T05:40:53;119.93;;;24.50;;
56427;SDS011;42331;53.578;9.760;2023-02-15T05:43:33;99.65;;;24.52;;
56427;SDS011;42331;53.578;9.760;2023-02-15T05:46:04;75.72;;;24.73;;
56427;SDS011;42331;53.578;9.760;2023-02-15T05:48:35;62.63;;;25.25;;
56427;SDS011;42331;53.578;9.760;2023-02-15T05:51:07;83.25;;;24.27;;
56427;SDS011;42331;53.578;9.760;2023-02-15T05:54:02;84.05;;;23.50;;
56427;SDS011;42331;53.578;9.760;2023-02-15T05:56:33;77.00;;;23.33;;
56427;SDS011;42331;53.578;9.760;2023-02-15T05:59:03;81.20;;;23.13;;
56427;SDS011;42331;53.578;9.760;2023-02-15T06:01:34;86.40;;;23.90;;
56427;SDS011;42331;53.578;9.760;2023-02-15T06:04:05;72.40;;;23.77;;
56427;SDS011;42331;53.578;9.760;2023-02-15T06:06:36;56.40;;;23.43;;
56427;SDS011;42331;53.578;9.760;2023-02-15T06:09:06;50.92;;;22.45;;
56427;SDS011;42331;53.578;9.760;2023-02-15T06:11:40;158.77;;;24.73;;
56427;SDS011;42331;53.578;9.760;2023-02-15T06:14:11;68.10;;;22.67;;
56427;SDS011;42331;53.578;9.760;2023-02-15T06:16:44;81.55;;;23.88;;
56427;SDS011;42331;53.578;9.760;2023-02-15T06:19:15;121.20;;;25.02;;
56427;SDS011;42331;53.578;9.760;2023-02-15T06:21:51;83.65;;;23.58;;
56427;SDS011;42331;53.578;9.760;2023-02-15T06:24:22;64.03;;;24.38;;
56427;SDS011;42331;53.578;9.760;2023-02-15T06:26:53;88.28;;;23.45;;
56427;SDS011;42331;53.578;9.760;2023-02-15T06:29:24;58.10;;;24.20;;
56427;SDS011;42331;53.578;9.760;2023-02-15T06:31:55;140.17;;;23.47;;
56427;SDS011;42331;53.578;9.760;2023-02-15T06:34:27;65.05;;;23.20;;
56427;SDS011;42331;53.578;9.760;2023-02-15T06:36:58;66.95;;;24.33;;
56427;SDS011;42331;53.578;9.760;2023-02-15T06:39:28;121.20;;;24.13;;
56427;SDS011;42331;53.578;9.760;2023-02-15T06:41:59;69.70;;;22.77;;
56427;SDS011;42331;53.578;9.760;2023-02-15T06:44:30;64.05;;;21.45;;
56427;SDS011;42331;53.578;9.760;2023-02-15T06:47:01;67.30;;;22.33;;
56427;SDS011;42331;53.578;9.760;2023-02-15T06:49:31;51.88;;;20.52;;
56427;SDS011;42331;53.578;9.760;2023-02-15T06:52:02;35.00;;;13.63;;
56427;SDS011;42331;53.578;9.760;2023-02-15T06:54:33;48.05;;;19.30;;
56427;SDS011;42331;53.578;9.760;2023-02-15T06:57:04;59.87;;;20.27;;
56427;SDS011;42331;53.578;9.760;2023-02-15T06:59:35;58.53;;;21.00;;
56427;SDS011;42331;53.578;9.760;2023-02-15T07:02:06;64.00;;;20.70;;
56427;SDS011;42331;53.578;9.760;2023-02-15T07:04:38;77.85;;;21.92;;
56427;SDS011;42331;53.578;9.760;2023-02-15T07:07:12;59.50;;;22.42;;
56427;SDS011;42331;53.578;9.760;2023-02-15T07:09:50;36.20;;;20.40;;
56427;SDS011;42331;53.578;9.760;2023-02-15T07:12:21;41.42;;;19.88;;
56427;SDS011;42331;53.578;9.760;2023-02-15T07:15:15;78.78;;;19.50;;
56427;SDS011;42331;53.578;9.760;2023-02-15T07:17:47;86.22;;;23.67;;
56427;SDS011;42331;53.578;9.760;2023-02-15T07:20:19;79.07;;;19.88;;
56427;SDS011;42331;53.578;9.760;2023-02-15T07:22:51;68.95;;;22.75;;
56427;SDS011;42331;53.578;9.760;2023-02-15T07:25:25;58.20;;;21.67;;
56427;SDS011;42331;53.578;9.760;2023-02-15T07:27:59;33.75;;;19.33;;
56427;SDS011;42331;53.578;9.760;2023-02-15T07:38:16;99.25;;;22.20;;
56427;SDS011;42331;53.578;9.760;2023-02-15T07:40:47;78.03;;;21.60;;
56427;SDS011;42331;53.578;9.760;2023-02-15T07:43:18;79.43;;;23.30;;
56427;SDS011;42331;53.578;9.760;2023-02-15T07:45:48;116.70;;;22.50;;
56427;SDS011;42331;53.578;9.760;2023-02-15T07:48:19;69.38;;;22.05;;
56427;SDS011;42331;53.578;9.760;2023-02-15T07:50:50;40.47;;;21.07;;
56427;SDS011;42331;53.578;9.760;2023-02-15T07:53:20;76.40;;;20.95;;
56427;SDS011;42331;53.578;9.760;2023-02-15T07:55:51;41.65;;;14.98;;
56427;SDS011;42331;53.578;9.760;2023-02-15T07:58:22;49.53;;;20.47;;
56427;SDS011;42331;53.578;9.760;2023-02-15T08:01:13;43.15;;;20.67;;
56427;SDS011;42331;53.578;9.760;2023-02-15T08:03:44;53.67;;;20.73;;
56427;SDS011;42331;53.578;9.760;2023-02-15T08:06:15;56.50;;;20.10;;
56427;SDS011;42331;53.578;9.760;2023-02-15T08:08:46;51.20;;;20.90;;
56427;SDS011;42331;53.578;9.760;2023-02-15T08:11:21;59.67;;;20.63;;
56427;SDS011;42331;53.578;9.760;2023-02-15T08:14:00;68.03;;;19.70;;
56427;SDS011;42331;53.578;9.760;2023-02-15T08:19:29;38.50;;;19.42;;
56427;SDS011;42331;53.578;9.760;2023-02-15T08:22:00;45.53;;;22.13;;
56427;SDS011;42331;53.578;9.760;2023-02-15T08:24:34;49.15;;;22.00;;
56427;SDS011;42331;53.578;9.760;2023-02-15T08:27:09;43.35;;;22.25;;
56427;SDS011;42331;53.578;9.760;2023-02-15T08:29:41;65.82;;;20.48;;
56427;SDS011;42331;53.578;9.760;2023-02-15T08:32:12;46.70;;;15.93;;
56427;SDS011;42331;53.578;9.760;2023-02-15T08:34:43;58.08;;;20.77;;
56427;SDS011;42331;53.578;9.760;2023-02-15T08:37:14;73.68;;;20.90;;
56427;SDS011;42331;53.578;9.760;2023-02-15T08:39:45;47.03;;;21.70;;
56427;SDS011;42331;53.578;9.760;2023-02-15T08:42:15;43.58;;;20.70;;
56427;SDS011;42331;53.578;9.760;2023-02-15T08:44:46;31.88;;;15.52;;
56427;SDS011;42331;53.578;9.760;2023-02-15T08:47:17;43.70;;;19.87;;
56427;SDS011;42331;53.578;9.760;2023-02-15T08:49:47;43.80;;;20.70;;
56427;SDS011;42331;53.578;9.760;2023-02-15T08:52:18;32.92;;;15.43;;
56427;SDS011;42331;53.578;9.760;2023-02-15T08:54:49;38.73;;;20.17;;
56427;SDS011;42331;53.578;9.760;2023-02-15T08:57:19;41.53;;;21.40;;
56427;SDS011;42331;53.578;9.760;2023-02-15T08:59:50;47.13;;;20.58;;
56427;SDS011;42331;53.578;9.760;2023-02-15T09:02:21;43.55;;;20.77;;
56427;SDS011;42331;53.578;9.760;2023-02-15T09:04:51;40.47;;;20.90;;
56427;SDS011;42331;53.578;9.760;2023-02-15T09:07:22;44.60;;;22.63;;
56427;SDS011;42331;53.578;9.760;2023-02-15T09:09:53;45.83;;;24.07;;
56427;SDS011;42331;53.578;9.760;2023-02-15T09:12:24;49.45;;;22.90;;
56427;SDS011;42331;53.578;9.760;2023-02-15T09:14:54;38.97;;;22.55;;
56427;SDS011;42331;53.578;9.760;2023-02-15T09:17:25;42.35;;;23.45;;
56427;SDS011;42331;53.578;9.760;2023-02-15T09:19:56;38.53;;;22.67;;
56427;SDS011;42331;53.578;9.760;2023-02-15T09:22:27;29.85;;;16.15;;
56427;SDS011;42331;53.578;9.760;2023-02-15T09:24:58;27.77;;;15.98;;
56427;SDS011;42331;53.578;9.760;2023-02-15T09:27:31;36.05;;;21.00;;
56427;SDS011;42331;53.578;9.760;2023-02-15T09:30:02;37.55;;;21.90;;
56427;SDS011;42331;53.578;9.760;2023-02-15T09:32:33;36.95;;;21.00;;
56427;SDS011;42331;53.578;9.760;2023-02-15T09:35:07;37.60;;;21.40;;
56427;SDS011;42331;53.578;9.760;2023-02-15T09:37:38;33.85;;;20.15;;
56427;SDS011;42331;53.578;9.760;2023-02-15T09:40:11;35.47;;;20.43;;
56427;SDS011;42331;53.578;9.760;2023-02-15T09:42:48;36.13;;;21.08;;
56427;SDS011;42331;53.578;9.760;2023-02-15T09:48:38;27.70;;;18.17;;
56427;SDS011;42331;53.578;9.760;2023-02-15T09:57:08;29.85;;;18.65;;
56427;SDS011;42331;53.578;9.760;2023-02-15T10:03:15;30.98;;;18.70;;
56427;SDS011;42331;53.578;9.760;2023-02-15T10:08:48;29.77;;;17.13;;
56427;SDS011;42331;53.578;9.760;2023-02-15T10:25:43;54.95;;;21.67;;
56427;SDS011;42331;53.578;9.760;2023-02-15T10:28:50;33.13;;;20.33;;
56427;SDS011;42331;53.578;9.760;2023-02-15T10:31:28;29.92;;;20.25;;
56427;SDS011;42331;53.578;9.760;2023-02-15T10:37:19;40.33;;;21.75;;
56427;SDS011;42331;53.578;9.760;2023-02-15T10:43:14;37.55;;;22.92;;
56427;SDS011;42331;53.578;9.760;2023-02-15T10:54:49;35.13;;;21.67;;
56427;SDS011;42331;53.578;9.760;2023-02-15T11:03:25;37.65;;;23.40;;
56427;SDS011;42331;53.578;9.760;2023-02-15T11:06:07;49.10;;;23.27;;
56427;SDS011;42331;53.578;9.760;2023-02-15T11:08:47;38.42;;;22.63;;
56427;SDS011;42331;53.578;9.760;2023-02-15T11:14:03;63.00;;;24.00;;
56427;SDS011;42331;53.578;9.760;2023-02-15T11:16:41;40.85;;;24.42;;
56427;SDS011;42331;53.578;9.760;2023-02-15T11:21:49;41.15;;;24.90;;
56427;SDS011;42331;53.578;9.760;2023-02-15T11:24:24;45.05;;;23.52;;
56427;SDS011;42331;53.578;9.760;2023-02-15T11:29:52;38.97;;;25.02;;
56427;SDS011;42331;53.578;9.760;2023-02-15T11:32:32;34.95;;;23.20;;
56427;SDS011;42331;53.578;9.760;2023-02-15T11:37:50;35.25;;;23.00;;
56427;SDS011;42331;53.578;9.760;2023-02-15T11:40:35;37.50;;;24.30;;
56427;SDS011;42331;53.578;9.760;2023-02-15T11:43:26;32.95;;;22.42;;
56427;SDS011;42331;53.578;9.760;2023-02-15T11:46:04;35.10;;;23.20;;
56427;SDS011;42331;53.578;9.760;2023-02-15T11:48:36;41.65;;;26.10;;
56427;SDS011;42331;53.578;9.760;2023-02-15T11:51:08;39.00;;;24.95;;
56427;SDS011;42331;53.578;9.760;2023-02-15T11:53:44;36.80;;;24.83;;
56427;SDS011;42331;53.578;9.760;2023-02-15T11:56:17;37.92;;;25.42;;
56427;SDS011;42331;53.578;9.760;2023-02-15T11:59:16;37.75;;;25.45;;
56427;SDS011;42331;53.578;9.760;2023-02-15T12:01:48;39.58;;;26.20;;
56427;SDS011;42331;53.578;9.760;2023-02-15T12:07:27;40.20;;;25.77;;
56427;SDS011;42331;53.578;9.760;2023-02-15T12:10:03;41.72;;;27.80;;
56427;SDS011;42331;53.578;9.760;2023-02-15T12:15:14;39.80;;;25.88;;
56427;SDS011;42331;53.578;9.760;2023-02-15T12:18:01;39.97;;;26.83;;
56427;SDS011;42331;53.578;9.760;2023-02-15T12:20:32;29.15;;;19.73;;
56427;SDS011;42331;53.578;9.760;2023-02-15T12:23:04;30.23;;;20.88;;
56427;SDS011;42331;53.578;9.760;2023-02-15T12:28:32;39.90;;;27.20;;
56427;SDS011;42331;53.578;9.760;2023-02-15T12:31:19;38.15;;;25.92;;
56427;SDS011;42331;53.578;9.760;2023-02-15T12:33:53;40.72;;;27.33;;
56427;SDS011;42331;53.578;9.760;2023-02-15T12:36:41;39.97;;;27.00;;
56427;SDS011;42331;53.578;9.760;2023-02-15T12:39:18;38.95;;;27.10;;
56427;SDS011;42331;53.578;9.760;2023-02-15T12:41:57;41.72;;;26.55;;
56427;SDS011;42331;53.578;9.760;2023-02-15T12:44:34;39.67;;;27.08;;
56427;SDS011;42331;53.578;9.760;2023-02-15T12:53:12;39.25;;;26.58;;
56427;SDS011;42331;53.578;9.760;2023-02-15T12:55:54;39.05;;;26.10;;
56427;SDS011;42331;53.578;9.760;2023-02-15T12:58:27;39.80;;;27.45;;
56427;SDS011;42331;53.578;9.760;2023-02-15T13:03:52;41.80;;;28.73;;
56427;SDS011;42331;53.578;9.760;2023-02-15T13:06:30;40.67;;;28.63;;
56427;SDS011;42331;53.578;9.760;2023-02-15T13:09:50;40.40;;;27.67;;
56427;SDS011;42331;53.578;9.760;2023-02-15T13:12:20;40.25;;;28.58;;
56427;SDS011;42331;53.578;9.760;2023-02-15T13:14:56;41.58;;;28.50;;
56427;SDS011;42331;53.578;9.760;2023-02-15T13:17:32;42.67;;;27.65;;
56427;SDS011;42331;53.578;9.760;2023-02-15T13:20:05;44.65;;;30.80;;
56427;SDS011;42331;53.578;9.760;2023-02-15T13:22:46;43.00;;;28.98;;
56427;SDS011;42331;53.578;9.760;2023-02-15T13:25:19;40.70;;;29.20;;
56427;SDS011;42331;53.578;9.760;2023-02-15T13:27:54;45.28;;;29.05;;
56427;SDS011;42331;53.578;9.760;2023-02-15T13:30:30;39.78;;;28.23;;
56427;SDS011;42331;53.578;9.760;2023-02-15T13:33:06;42.35;;;29.25;;
56427;SDS011;42331;53.578;9.760;2023-02-15T13:35:49;38.67;;;27.70;;
56427;SDS011;42331;53.578;9.760;2023-02-15T13:41:32;36.60;;;27.30;;
56427;SDS011;42331;53.578;9.760;2023-02-15T13:44:15;36.28;;;26.13;;
56427;SDS011;42331;53.578;9.760;2023-02-15T13:47:03;42.10;;;28.58;;
56427;SDS011;42331;53.578;9.760;2023-02-15T13:52:20;37.60;;;28.05;;
56427;SDS011;42331;53.578;9.760;2023-02-15T13:54:53;39.53;;;28.40;;
56427;SDS011;42331;53.578;9.760;2023-02-15T14:00:17;40.47;;;28.35;;
56427;SDS011;42331;53.578;9.760;2023-02-15T14:03:26;38.25;;;28.08;;
56427;SDS011;42331;53.578;9.760;2023-02-15T14:15:38;36.47;;;26.77;;
56427;SDS011;42331;53.578;9.760;2023-02-15T14:18:21;38.22;;;28.00;;
56427;SDS011;42331;53.578;9.760;2023-02-15T14:21:10;38.65;;;27.52;;
56427;SDS011;42331;53.578;9.760;2023-02-15T14:24:16;35.53;;;26.83;;
56427;SDS011;42331;53.578;9.760;2023-02-15T14:35:17;36.33;;;26.73;;
56427;SDS011;42331;53.578;9.760;2023-02-15T14:48:52;33.97;;;25.75;;
56427;SDS011;42331;53.578;9.760;2023-02-15T14:59:36;40.05;;;27.15;;
56427;SDS011;42331;53.578;9.760;2023-02-15T15:02:21;36.70;;;25.98;;
56427;SDS011;42331;53.578;9.760;2023-02-15T15:07:55;36.00;;;26.95;;
56427;SDS011;42331;53.578;9.760;2023-02-15T15:10:34;37.22;;;26.75;;
56427;SDS011;42331;53.578;9.760;2023-02-15T15:19:10;39.75;;;27.15;;
56427;SDS011;42331;53.578;9.760;2023-02-15T15:49:50;43.53;;;27.88;;
56427;SDS011;42331;53.578;9.760;2023-02-15T15:52:28;40.40;;;28.13;;
56427;SDS011;42331;53.578;9.760;2023-02-15T15:55:03;43.40;;;29.00;;
56427;SDS011;42331;53.578;9.760;2023-02-15T16:03:47;46.45;;;29.33;;
56427;SDS011;42331;53.578;9.760;2023-02-15T16:06:05;39.53;;;28.00;;
56427;SDS011;42331;53.578;9.760;2023-02-15T16:08:41;39.63;;;28.10;;
56427;SDS011;42331;53.578;9.760;2023-02-15T16:11:22;39.30;;;27.70;;
56427;SDS011;42331;53.578;9.760;2023-02-15T16:13:59;40.20;;;28.02;;
56427;SDS011;42331;53.578;9.760;2023-02-15T16:16:32;44.27;;;30.23;;
56427;SDS011;42331;53.578;9.760;2023-02-15T16:19:03;43.92;;;29.42;;
56427;SDS011;42331;53.578;9.760;2023-02-15T16:21:35;43.65;;;29.88;;
56427;SDS011;42331;53.578;9.760;2023-02-15T16:30:17;50.55;;;31.10;;
56427;SDS011;42331;53.578;9.760;2023-02-15T16:41:13;47.28;;;30.05;;
56427;SDS011;42331;53.578;9.760;2023-02-15T16:43:47;49.50;;;30.45;;
56427;SDS011;42331;53.578;9.760;2023-02-15T16:46:24;44.58;;;29.67;;
56427;SDS011;42331;53.578;9.760;2023-02-15T16:48:57;45.05;;;30.55;;
56427;SDS011;42331;53.578;9.760;2023-02-15T16:51:31;49.72;;;30.10;;
56427;SDS011;42331;53.578;9.760;2023-02-15T16:54:05;45.15;;;29.17;;
56427;SDS011;42331;53.578;9.760;2023-02-15T16:56:38;46.60;;;29.80;;
56427;SDS011;42331;53.578;9.760;2023-02-15T17:02:12;47.78;;;30.38;;
56427;SDS011;42331;53.578;9.760;2023-02-15T17:07:42;52.15;;;31.40;;
56427;SDS011;42331;53.578;9.760;2023-02-15T17:10:38;53.20;;;31.10;;
56427;SDS011;42331;53.578;9.760;2023-02-15T17:15:44;45.17;;;29.08;;
56427;SDS011;42331;53.578;9.760;2023-02-15T17:18:32;51.63;;;31.15;;
56427;SDS011;42331;53.578;9.760;2023-02-15T17:21:18;52.88;;;31.65;;
56427;SDS011;42331;53.578;9.760;2023-02-15T17:23:51;57.03;;;32.88;;
56427;SDS011;42331;53.578;9.760;2023-02-15T17:26:31;52.28;;;32.33;;
56427;SDS011;42331;53.578;9.760;2023-02-15T17:31:53;52.28;;;31.65;;
56427;SDS011;42331;53.578;9.760;2023-02-15T17:40:18;45.50;;;28.27;;
56427;SDS011;42331;53.578;9.760;2023-02-15T17:43:00;52.55;;;29.65;;
56427;SDS011;42331;53.578;9.760;2023-02-15T17:45:32;51.33;;;30.08;;
56427;SDS011;42331;53.578;9.760;2023-02-15T17:48:05;45.90;;;29.20;;
56427;SDS011;42331;53.578;9.760;2023-02-15T17:50:45;51.10;;;30.23;;
56427;SDS011;42331;53.578;9.760;2023-02-15T17:53:16;54.65;;;31.23;;
56427;SDS011;42331;53.578;9.760;2023-02-15T17:55:48;52.72;;;30.58;;
56427;SDS011;42331;53.578;9.760;2023-02-15T17:58:19;54.70;;;31.00;;
56427;SDS011;42331;53.578;9.760;2023-02-15T18:00:50;54.58;;;31.73;;
56427;SDS011;42331;53.578;9.760;2023-02-15T18:03:46;50.60;;;29.88;;
56427;SDS011;42331;53.578;9.760;2023-02-15T18:06:38;55.05;;;32.38;;
56427;SDS011;42331;53.578;9.760;2023-02-15T18:09:28;53.10;;;30.35;;
56427;SDS011;42331;53.578;9.760;2023-02-15T18:12:22;49.33;;;29.42;;
56427;SDS011;42331;53.578;9.760;2023-02-15T18:14:53;51.97;;;29.52;;
56427;SDS011;42331;53.578;9.760;2023-02-15T18:17:29;52.78;;;29.08;;
56427;SDS011;42331;53.578;9.760;2023-02-15T18:20:05;55.00;;;31.20;;
56427;SDS011;42331;53.578;9.760;2023-02-15T18:22:47;53.50;;;30.40;;
56427;SDS011;42331;53.578;9.760;2023-02-15T18:25:19;53.83;;;31.25;;
56427;SDS011;42331;53.578;9.760;2023-02-15T18:27:51;53.88;;;29.23;;
56427;SDS011;42331;53.578;9.760;2023-02-15T18:30:23;50.65;;;29.15;;
56427;SDS011;42331;53.578;9.760;2023-02-15T18:32:57;49.45;;;29.30;;
56427;SDS011;42331;53.578;9.760;2023-02-15T18:35:30;52.08;;;29.67;;
56427;SDS011;42331;53.578;9.760;2023-02-15T18:38:02;48.95;;;27.70;;
56427;SDS011;42331;53.578;9.760;2023-02-15T18:40:33;48.13;;;27.63;;
56427;SDS011;42331;53.578;9.760;2023-02-15T18:43:04;52.70;;;28.60;;
56427;SDS011;42331;53.578;9.760;2023-02-15T18:45:35;48.93;;;28.53;;
56427;SDS011;42331;53.578;9.760;2023-02-15T18:48:07;51.85;;;29.52;;
56427;SDS011;42331;53.578;9.760;2023-02-15T18:50:39;50.03;;;29.75;;
56427;SDS011;42331;53.578;9.760;2023-02-15T18:53:14;52.13;;;27.60;;
56427;SDS011;42331;53.578;9.760;2023-02-15T18:55:47;52.33;;;29.35;;
56427;SDS011;42331;53.578;9.760;2023-02-15T18:58:19;51.95;;;29.33;;
56427;SDS011;42331;53.578;9.760;2023-02-15T19:00:53;47.55;;;27.85;;
56427;SDS011;42331;53.578;9.760;2023-02-15T19:03:25;51.08;;;28.48;;
56427;SDS011;42331;53.578;9.760;2023-02-15T19:05:56;51.17;;;30.13;;
56427;SDS011;42331;53.578;9.760;2023-02-15T19:08:27;49.60;;;29.77;;
56427;SDS011;42331;53.578;9.760;2023-02-15T19:10:58;38.33;;;21.42;;
56427;SDS011;42331;53.578;9.760;2023-02-15T19:13:29;48.13;;;29.05;;
56427;SDS011;42331;53.578;9.760;2023-02-15T19:16:00;48.90;;;28.50;;
56427;SDS011;42331;53.578;9.760;2023-02-15T19:18:31;36.83;;;21.40;;
56427;SDS011;42331;53.578;9.760;2023-02-15T19:21:02;49.08;;;28.30;;